Time;durP1;ratioP1;P1;durP2;ratioP2;P2;SDS_P1;SDS_P2;PMS_P1;PMS_P2;Temp;Humidity;BMP_temperature;BMP_pressure;BME280_temperature;BME280_humidity;BME280_pressure;Samples;Min_cycle;Max_cycle;Signal;HPM_P1;HPM_P2
2022/11/02 00:00:40;;;;;;;5.63;3.95;;;;;;;11.60;98.44;101289.06;6057167;23;20373;-70
2022/11/02 00:03:07;;;;;;;8.73;4.60;;;;;;;11.42;98.85;101251.34;6014958;23;20015;-70
2022/11/02 00:05:34;;;;;;;4.50;4.30;;;;;;;11.62;100.00;101278.47;6078851;23;20029;-70
2022/11/02 00:08:01;;;;;;;6.55;4.72;;;;;;;11.36;100.00;101246.38;6042842;23;20019;-70
2022/11/02 00:10:31;;;;;;;4.60;4.32;;;;;;;11.11;100.00;101200.22;6037075;23;20022;-69
2022/11/02 00:12:58;;;;;;;9.40;4.53;;;;;;;11.62;100.00;101281.09;6001576;23;20018;-70
2022/11/02 00:15:27;;;;;;;6.18;5.00;;;;;;;11.09;100.00;101201.22;6063669;23;20554;-70
2022/11/02 00:18:32;;;;;;;12.57;11.77;;;;;;;11.69;100.00;101264.13;6011731;23;20026;-68
2022/11/02 00:21:00;;;;;;;7.03;4.38;;;;;;;11.32;100.00;101198.34;6063649;23;20014;-71
2022/11/02 00:23:27;;;;;;;7.28;4.50;;;;;;;11.36;100.00;101196.44;6050612;23;20024;-70
2022/11/02 00:25:55;;;;;;;8.23;4.30;;;;;;;11.66;100.00;101237.97;6056010;23;20088;-71
2022/11/02 00:28:28;;;;;;;5.60;4.40;;;;;;;11.66;100.00;101230.91;6012961;23;20038;-71
2022/11/02 00:30:54;;;;;;;4.85;4.40;;;;;;;11.85;100.00;101253.72;6053702;23;20536;-70
2022/11/02 00:33:20;;;;;;;5.13;4.72;;;;;;;11.95;100.00;101269.00;6013436;23;20414;-71
2022/11/02 00:35:47;;;;;;;6.60;4.15;;;;;;;11.79;100.00;101244.34;6048179;23;20023;-71
2022/11/02 00:38:13;;;;;;;4.57;4.30;;;;;;;11.65;100.00;101215.25;6036494;23;20030;-71
2022/11/02 00:40:40;;;;;;;5.93;4.28;;;;;;;12.03;100.00;101287.03;6021367;23;20010;-71
2022/11/02 00:43:06;;;;;;;4.50;4.20;;;;;;;12.16;99.42;101300.44;6044952;23;20026;-71
2022/11/02 00:45:32;;;;;;;4.75;4.40;;;;;;;12.14;100.00;101305.75;6043474;23;20643;-71
2022/11/02 00:47:59;;;;;;;6.47;4.50;;;;;;;12.16;98.97;101308.31;6050578;23;20019;-70
2022/11/02 00:50:25;;;;;;;5.22;4.82;;;;;;;12.37;97.44;101316.97;6040858;23;20089;-69
2022/11/02 00:52:52;;;;;;;4.70;4.40;;;;;;;12.44;95.57;101318.34;6028266;23;20045;-71
2022/11/02 00:55:18;;;;;;;6.63;5.70;;;;;;;12.29;95.75;101309.44;6050021;23;20096;-71
2022/11/02 00:57:45;;;;;;;4.97;4.55;;;;;;;11.77;95.85;101217.28;6057918;23;20084;-71
2022/11/02 01:00:12;;;;;;;9.77;4.65;;;;;;;12.20;96.01;101314.31;6018448;23;20504;-69
2022/11/02 01:02:39;;;;;;;4.40;4.20;;;;;;;12.18;96.65;101317.84;6050616;23;20054;-69
2022/11/02 01:05:08;;;;;;;4.70;4.50;;;;;;;12.06;97.18;101317.59;6025143;23;20034;-70
2022/11/02 01:07:34;;;;;;;4.90;4.50;;;;;;;11.62;97.81;101252.19;6048775;23;20359;-70
2022/11/02 01:10:01;;;;;;;4.25;4.05;;;;;;;12.02;97.92;101306.38;6019560;23;20543;-70
2022/11/02 01:12:27;;;;;;;4.68;4.38;;;;;;;11.68;97.99;101262.41;6039130;23;20042;-71
2022/11/02 01:14:54;;;;;;;10.68;4.70;;;;;;;11.52;97.72;101239.47;6044160;23;20027;-71
2022/11/02 01:17:20;;;;;;;4.95;4.55;;;;;;;11.64;97.75;101255.59;6049451;23;20038;-71
2022/11/02 01:19:50;;;;;;;8.43;5.00;;;;;;;11.95;97.32;101316.34;6051703;23;20053;-71
2022/11/02 01:22:17;;;;;;;4.50;4.30;;;;;;;11.78;97.27;101296.06;6047290;23;20029;-71
2022/11/02 01:24:45;;;;;;;5.00;4.50;;;;;;;11.82;96.89;101303.81;6049911;23;20597;-70
2022/11/02 01:27:12;;;;;;;5.15;4.13;;;;;;;11.93;97.65;101312.94;6042585;23;20050;-70
2022/11/02 01:29:38;;;;;;;13.98;4.32;;;;;;;11.84;97.18;101333.53;6044345;23;20027;-70
2022/11/02 01:32:04;;;;;;;5.07;4.78;;;;;;;11.66;97.73;101287.91;6043943;23;20018;-71
2022/11/02 01:34:31;;;;;;;4.72;4.40;;;;;;;11.31;98.20;101216.84;6043714;23;20019;-71
2022/11/02 01:36:57;;;;;;;4.97;4.50;;;;;;;11.78;97.98;101308.38;6052064;23;20155;-70
2022/11/02 01:39:24;;;;;;;5.57;4.75;;;;;;;11.70;98.61;101300.84;6057766;23;20114;-70
2022/11/02 01:41:51;;;;;;;4.90;4.40;;;;;;;11.70;98.56;101295.56;6058494;23;20023;-70
2022/11/02 01:44:33;;;;;;;4.78;4.50;;;;;;;10.61;98.31;101102.78;6046594;23;20027;-70
2022/11/02 01:47:16;;;;;;;4.82;4.55;;;;;;;11.86;98.06;101308.84;6041156;23;20044;-70
2022/11/02 01:49:46;;;;;;;5.95;4.53;;;;;;;11.62;98.36;101275.84;6036983;23;20034;-70
2022/11/02 01:52:25;;;;;;;5.30;4.80;;;;;;;11.78;98.25;101293.44;6039634;23;20011;-70
2022/11/02 01:54:57;;;;;;;8.23;4.63;;;;;;;10.70;96.95;101118.94;6051747;23;20019;-70
2022/11/02 01:57:25;;;;;;;4.55;4.25;;;;;;;11.26;97.22;101201.28;6079722;23;20045;-70
2022/11/02 02:00:02;;;;;;;4.80;4.40;;;;;;;12.00;96.27;101315.25;6064029;23;20010;-70
2022/11/02 02:02:31;;;;;;;4.80;4.45;;;;;;;11.97;96.03;101313.66;6096038;23;20037;-70
2022/11/02 02:05:04;;;;;;;4.60;4.30;;;;;;;11.60;96.30;101270.66;6047553;23;20630;-70
2022/11/02 02:07:34;;;;;;;4.63;4.32;;;;;;;11.45;96.50;101250.38;6065421;23;20720;-70
2022/11/02 02:10:01;;;;;;;11.15;4.68;;;;;;;11.73;97.95;101313.00;6051939;23;20018;-70
2022/11/02 02:12:29;;;;;;;5.35;4.40;;;;;;;11.45;98.58;101282.75;6069506;23;20029;-70
2022/11/02 02:14:56;;;;;;;11.25;4.30;;;;;;;11.56;99.09;101305.88;6053628;23;20015;-70
2022/11/02 02:17:43;;;;;;;4.28;4.07;;;;;;;11.45;99.61;101295.88;6049242;23;20085;-70
2022/11/02 02:20:38;;;;;;;4.60;4.40;;;;;;;11.34;100.00;101277.13;6057642;23;20030;-70
2022/11/02 02:23:53;;;;;;;8.05;4.30;;;;;;;11.36;100.00;101299.78;6065042;23;20034;-70
2022/11/02 02:26:30;;;;;;;4.30;4.10;;;;;;;11.32;100.00;101300.84;6057334;23;20080;-70
2022/11/02 02:29:13;;;;;;;5.20;4.80;;;;;;;11.24;100.00;101291.59;6070206;23;20030;-71
2022/11/02 02:31:44;;;;;;;;;;;;;;;11.25;100.00;101291.53;6058874;23;20503;-70
2022/11/02 02:34:18;;;;;;;5.85;4.90;;;;;;;11.23;100.00;101290.75;6073268;23;19917;-70
2022/11/02 02:37:06;;;;;;;6.13;4.47;;;;;;;11.33;100.00;101297.28;6051661;23;20018;-70
2022/11/02 02:39:56;;;;;;;4.60;4.30;;;;;;;11.26;100.00;101300.28;6062084;23;20101;-70
2022/11/02 02:42:36;;;;;;;7.57;4.38;;;;;;;11.02;100.00;101282.06;6068075;23;20571;-70
2022/11/02 02:45:19;;;;;;;4.65;4.43;;;;;;;11.18;100.00;101292.72;6063370;23;20090;-70
2022/11/02 02:47:57;;;;;;;4.53;4.32;;;;;;;11.09;100.00;101295.78;6076801;23;20473;-70
2022/11/02 02:50:28;;;;;;;4.40;4.20;;;;;;;11.14;100.00;101317.44;6068533;23;20034;-70
2022/11/02 02:52:57;;;;;;;10.95;4.20;;;;;;;11.25;100.00;101306.47;6065527;23;20038;-70
2022/11/02 02:55:30;;;;;;;5.47;4.90;;;;;;;11.17;100.00;101302.41;6062262;23;20021;-70
2022/11/02 02:58:01;;;;;;;6.22;4.40;;;;;;;11.06;100.00;101291.50;6060020;23;20092;-69
2022/11/02 03:00:30;;;;;;;4.32;4.10;;;;;;;11.20;100.00;101309.28;6071384;23;20096;-69
2022/11/02 03:03:00;;;;;;;4.38;4.07;;;;;;;10.71;100.00;101230.91;6059619;23;20093;-68
2022/11/02 03:05:31;;;;;;;6.55;5.07;;;;;;;10.08;100.00;101117.31;6052369;23;20022;-69
2022/11/02 03:08:03;;;;;;;6.03;4.50;;;;;;;11.26;100.00;101310.78;6057014;23;20044;-69
2022/11/02 03:10:52;;;;;;;5.47;4.53;;;;;;;10.93;100.00;101251.81;6023027;23;20030;-69
2022/11/02 03:13:44;;;;;;;6.47;4.53;;;;;;;11.16;100.00;101265.69;6043880;23;20051;-68
2022/11/02 03:16:20;;;;;;;5.13;4.55;;;;;;;11.42;99.41;101321.44;6043235;23;20026;-69
2022/11/02 03:19:03;;;;;;;4.47;4.18;;;;;;;11.18;99.07;101284.84;6056054;23;20026;-70
2022/11/02 03:21:40;;;;;;;6.57;4.50;;;;;;;10.88;99.75;101245.91;6061115;23;20030;-69
2022/11/02 03:24:23;;;;;;;4.68;4.38;;;;;;;11.45;99.57;101331.84;6042230;23;20031;-69
2022/11/02 03:26:49;;;;;;;;;;;;;;;11.70;98.80;101350.78;6045658;23;20029;-70
2022/11/02 03:29:28;;;;;;;4.30;4.10;;;;;;;11.70;96.83;101324.50;6045989;23;19914;-70
2022/11/02 03:31:59;;;;;;;4.60;4.30;;;;;;;11.87;95.24;101349.19;6037957;23;20064;-70
2022/11/02 03:34:33;;;;;;;4.43;4.22;;;;;;;12.08;94.57;101373.63;6013860;23;20038;-70
2022/11/02 03:37:12;;;;;;;4.30;4.10;;;;;;;12.04;94.44;101385.22;6044995;23;20414;-69
2022/11/02 03:39:43;;;;;;;5.63;5.30;;;;;;;12.10;93.71;101391.03;6040699;23;20093;-69
2022/11/02 03:42:14;;;;;;;4.85;4.55;;;;;;;12.10;92.44;101383.16;6045201;23;20023;-69
2022/11/02 03:44:42;;;;;;;4.97;4.57;;;;;;;12.11;91.09;101381.38;6054725;23;20018;-69
2022/11/02 03:47:11;;;;;;;6.57;4.68;;;;;;;12.17;89.96;101391.63;6062477;23;20582;-71
2022/11/02 03:49:41;;;;;;;4.78;4.22;;;;;;;12.09;89.94;101393.75;6024617;23;20019;-70
2022/11/02 03:52:12;;;;;;;5.20;4.70;;;;;;;12.01;89.72;101394.13;6044545;23;20027;-69
2022/11/02 03:54:44;;;;;;;4.78;4.35;;;;;;;12.02;89.20;101395.81;6035469;23;20022;-69
2022/11/02 03:57:18;;;;;;;15.35;4.78;;;;;;;11.82;89.02;101394.06;6036724;23;20418;-69
2022/11/02 03:59:44;;;;;;;10.45;4.90;;;;;;;11.52;90.48;101368.25;6056621;23;20026;-70
2022/11/02 04:02:13;;;;;;;6.80;4.20;;;;;;;11.51;91.58;101405.16;6022009;23;20022;-70
2022/11/02 04:04:48;;;;;;;4.30;4.10;;;;;;;11.41;92.62;101398.59;6048744;23;20026;-70
2022/11/02 04:07:18;;;;;;;4.45;4.13;;;;;;;11.34;93.33;101412.00;6067632;23;20080;-70
2022/11/02 04:09:44;;;;;;;5.25;4.75;;;;;;;11.35;94.25;101413.72;6046926;23;20033;-70
2022/11/02 04:14:55;;;;;;;6.50;4.43;;;;;;;11.46;94.92;101418.47;6033514;23;20011;-69
2022/11/02 04:20:07;;;;;;;4.70;4.40;;;;;;;11.30;97.42;101413.03;6037777;23;20022;-70
2022/11/02 04:25:19;;;;;;;4.65;4.35;;;;;;;10.16;100.00;101230.63;6038565;23;20063;-70
2022/11/02 04:27:51;;;;;;;4.50;4.30;;;;;;;11.20;100.00;101411.75;6046234;23;20030;-70
2022/11/02 04:30:20;;;;;;;4.60;4.30;;;;;;;11.02;100.00;101355.59;6040491;23;20057;-70
2022/11/02 04:35:34;;;;;;;4.45;4.10;;;;;;;11.04;100.00;101372.16;6053605;23;20026;-70
2022/11/02 04:40:46;;;;;;;4.07;3.88;;;;;;;10.76;100.00;101344.47;6038009;23;20022;-69
2022/11/02 04:43:12;;;;;;;4.18;3.95;;;;;;;10.09;100.00;101243.16;6050458;23;20019;-69
2022/11/02 04:45:39;;;;;;;4.30;4.10;;;;;;;11.22;100.00;101415.16;6039352;23;20023;-70
2022/11/02 04:48:07;;;;;;;4.40;4.20;;;;;;;10.94;100.00;101360.34;6035767;23;20026;-70
2022/11/02 04:50:35;;;;;;;5.05;4.63;;;;;;;11.02;100.00;101370.50;6033255;23;20097;-69
2022/11/02 04:53:04;;;;;;;4.80;4.50;;;;;;;11.29;100.00;101423.66;6043110;23;20010;-70
2022/11/02 04:55:30;;;;;;;5.43;5.05;;;;;;;11.12;100.00;101416.47;6050443;23;20147;-69
2022/11/02 04:57:57;;;;;;;11.20;4.63;;;;;;;11.14;100.00;101431.25;6056278;23;20021;-69
2022/11/02 05:00:23;;;;;;;4.20;4.00;;;;;;;11.02;100.00;101437.03;6052410;23;20085;-70
2022/11/02 05:02:50;;;;;;;20.98;4.82;;;;;;;11.03;100.00;101445.78;6053983;23;20014;-69
2022/11/02 05:05:17;;;;;;;4.70;4.38;;;;;;;11.00;100.00;101445.88;6037325;23;20050;-69
2022/11/02 05:07:43;;;;;;;5.25;4.38;;;;;;;10.95;100.00;101456.59;6049868;23;20031;-68
2022/11/02 05:10:10;;;;;;;4.30;4.10;;;;;;;10.96;100.00;101448.66;6047020;23;20015;-69
2022/11/02 05:12:37;;;;;;;5.38;4.82;;;;;;;10.01;100.00;101286.34;6050495;23;20132;-69
2022/11/02 05:15:04;;;;;;;4.78;4.38;;;;;;;10.85;100.00;101435.13;6042382;23;20080;-68
2022/11/02 05:17:30;;;;;;;4.40;4.18;;;;;;;10.50;100.00;101386.69;6046594;23;20026;-69
2022/11/02 05:19:57;;;;;;;9.25;4.47;;;;;;;10.66;100.00;101397.41;6040756;23;20018;-69
2022/11/02 05:22:23;;;;;;;4.85;4.18;;;;;;;10.72;100.00;101423.41;6083779;23;20026;-69
2022/11/02 05:24:49;;;;;;;10.00;4.30;;;;;;;10.78;100.00;101431.91;6068281;23;20013;-69
2022/11/02 05:27:16;;;;;;;4.45;4.25;;;;;;;10.78;100.00;101455.53;6062302;23;20027;-69
2022/11/02 05:29:42;;;;;;;4.43;4.10;;;;;;;10.81;100.00;101458.94;6067276;23;20032;-69
2022/11/02 05:32:08;;;;;;;4.10;3.90;;;;;;;10.80;100.00;101470.34;6048360;23;20030;-70
2022/11/02 05:34:35;;;;;;;4.10;3.90;;;;;;;10.61;100.00;101423.00;6043186;23;20030;-68
2022/11/02 05:37:01;;;;;;;4.68;4.38;;;;;;;10.78;100.00;101467.78;6048538;23;20045;-69
2022/11/02 05:39:27;;;;;;;4.80;4.50;;;;;;;10.80;100.00;101480.84;6039307;23;20026;-70
2022/11/02 05:41:54;;;;;;;4.53;4.30;;;;;;;10.76;100.00;101480.13;6049995;23;20014;-69
2022/11/02 05:44:20;;;;;;;4.20;4.00;;;;;;;10.78;100.00;101484.41;6051563;23;20015;-69
2022/11/02 05:46:47;;;;;;;4.47;4.15;;;;;;;10.29;100.00;101414.63;6038576;23;20045;-70
2022/11/02 05:49:13;;;;;;;4.40;4.20;;;;;;;10.61;100.00;101486.00;6060204;23;20030;-69
2022/11/02 05:51:39;;;;;;;5.40;4.40;;;;;;;9.75;100.00;101345.91;6045947;23;20026;-70
2022/11/02 05:54:06;;;;;;;4.70;4.30;;;;;;;10.42;100.00;101441.25;6053902;23;20030;-70
2022/11/02 05:56:32;;;;;;;5.47;4.15;;;;;;;10.67;100.00;101507.59;6066528;23;20678;-72
2022/11/02 05:58:59;;;;;;;4.40;4.15;;;;;;;10.66;100.00;101500.63;6067902;23;20088;-69
2022/11/02 06:01:25;;;;;;;10.57;4.80;;;;;;;10.86;100.00;101506.84;6051044;23;20167;-70
2022/11/02 06:03:52;;;;;;;4.15;3.95;;;;;;;10.61;98.52;101476.34;6054815;23;20034;-69
2022/11/02 06:06:20;;;;;;;5.30;4.13;;;;;;;10.61;98.54;101491.25;6063739;23;20080;-70
2022/11/02 06:08:46;;;;;;;4.78;4.47;;;;;;;10.31;98.36;101457.41;6066746;23;20038;-69
2022/11/02 06:11:13;;;;;;;5.40;4.90;;;;;;;10.83;97.56;101522.75;6063337;23;20022;-71
2022/11/02 06:13:40;;;;;;;4.93;4.50;;;;;;;10.77;98.08;101532.56;6071620;23;20038;-69
2022/11/02 06:16:09;;;;;;;4.85;4.55;;;;;;;10.71;98.43;101529.34;6063673;23;20465;-69
2022/11/02 06:18:37;;;;;;;5.20;4.70;;;;;;;10.77;98.20;101537.81;6065332;23;20023;-69
2022/11/02 06:21:04;;;;;;;4.40;4.20;;;;;;;10.70;98.38;101549.47;6068059;23;20716;-69
2022/11/02 06:23:30;;;;;;;4.75;4.45;;;;;;;10.66;99.42;101526.88;6054240;23;20649;-70
2022/11/02 06:25:58;;;;;;;5.05;4.55;;;;;;;10.41;99.16;101489.41;6066376;23;20018;-69
2022/11/02 06:28:25;;;;;;;4.30;4.10;;;;;;;10.72;98.88;101538.91;6061630;23;20015;-69
2022/11/02 06:30:52;;;;;;;4.78;3.97;;;;;;;10.71;99.51;101545.94;6066604;23;20030;-68
2022/11/02 06:33:19;;;;;;;6.93;4.53;;;;;;;10.71;99.56;101553.81;6066658;23;20029;-67
2022/11/02 06:35:48;;;;;;;4.65;4.43;;;;;;;10.41;99.39;101520.91;6064537;23;20496;-67
2022/11/02 06:38:16;;;;;;;4.80;4.50;;;;;;;10.38;99.80;101513.97;6062891;23;20010;-68
2022/11/02 06:40:43;;;;;;;5.00;4.50;;;;;;;10.32;100.00;101487.97;6064660;23;20028;-68
2022/11/02 06:43:11;;;;;;;5.75;4.43;;;;;;;10.30;100.00;101518.66;6051207;23;20031;-68
2022/11/02 06:45:42;;;;;;;4.13;3.92;;;;;;;10.58;100.00;101548.19;6036054;23;20050;-68
2022/11/02 06:48:09;;;;;;;4.70;4.40;;;;;;;10.16;99.91;101464.06;6062022;23;20105;-68
2022/11/02 06:50:35;;;;;;;4.40;4.18;;;;;;;10.70;100.00;101559.97;6047758;23;20053;-67
2022/11/02 06:53:01;;;;;;;4.50;4.20;;;;;;;10.72;100.00;101571.28;6053050;23;20023;-68
2022/11/02 06:55:28;;;;;;;4.43;4.10;;;;;;;10.67;100.00;101590.75;6066069;23;20037;-68
2022/11/02 06:57:55;;;;;;;4.22;3.95;;;;;;;10.71;100.00;101598.44;6069403;23;20026;-67
2022/11/02 07:00:21;;;;;;;4.60;4.32;;;;;;;10.80;100.00;101602.47;6037901;23;20043;-68
2022/11/02 07:03:06;;;;;;;10.57;4.43;;;;;;;10.74;99.27;101586.97;6046508;23;20019;-67
2022/11/02 07:05:34;;;;;;;4.28;4.05;;;;;;;10.90;99.17;101613.50;6033246;23;20055;-67
2022/11/02 07:08:01;;;;;;;4.60;4.38;;;;;;;10.82;100.00;101628.69;6052842;23;20010;-68
2022/11/02 07:10:28;;;;;;;4.70;4.15;;;;;;;10.86;99.88;101632.91;6052657;23;20089;-68
2022/11/02 07:12:56;;;;;;;4.47;4.18;;;;;;;10.64;99.75;101598.75;6044507;23;20022;-68
2022/11/02 07:15:25;;;;;;;4.63;4.13;;;;;;;10.60;99.58;101605.03;6034458;23;20429;-68
2022/11/02 07:17:52;;;;;;;7.95;4.50;;;;;;;10.38;99.77;101564.69;6060421;23;20049;-68
2022/11/02 07:20:19;;;;;;;5.00;4.53;;;;;;;10.84;98.79;101637.34;6058350;23;20015;-67
2022/11/02 07:22:53;;;;;;;14.25;4.80;;;;;;;11.01;97.75;101669.09;6061693;23;20112;-68
2022/11/02 07:25:20;;;;;;;6.47;4.82;;;;;;;10.71;97.38;101615.97;6051794;23;20017;-68
2022/11/02 07:27:47;;;;;;;4.85;4.55;;;;;;;10.69;96.49;101604.69;6060964;23;20043;-68
2022/11/02 07:30:13;;;;;;;7.57;4.60;;;;;;;11.15;95.72;101685.19;6041712;23;20028;-69
2022/11/02 07:32:41;;;;;;;4.85;4.50;;;;;;;11.18;95.54;101682.44;6060573;23;20026;-68
2022/11/02 07:35:10;;;;;;;4.70;4.40;;;;;;;10.91;95.87;101649.34;6054718;23;20068;-68
2022/11/02 07:37:36;;;;;;;4.82;4.38;;;;;;;11.17;95.50;101696.47;6062848;23;20014;-68
2022/11/02 07:40:04;;;;;;;4.80;4.38;;;;;;;11.15;95.63;101695.69;6031745;23;20030;-68
2022/11/02 07:42:31;;;;;;;5.18;4.43;;;;;;;10.83;96.26;101646.16;6068887;23;20312;-67
2022/11/02 07:44:57;;;;;;;5.80;5.00;;;;;;;11.01;95.89;101673.50;6064422;23;20026;-67
2022/11/02 07:47:27;;;;;;;4.63;4.13;;;;;;;11.06;96.22;101690.78;6032664;23;20041;-68
2022/11/02 07:49:53;;;;;;;4.30;4.10;;;;;;;11.35;95.22;101723.81;6057804;23;20346;-68
2022/11/02 07:52:19;;;;;;;4.80;4.40;;;;;;;11.32;94.31;101738.84;6053256;23;20406;-67
2022/11/02 07:54:46;;;;;;;4.40;4.20;;;;;;;11.41;94.13;101732.41;6007632;23;20031;-67
2022/11/02 07:57:12;;;;;;;4.30;4.10;;;;;;;11.50;94.27;101746.00;6032019;23;20062;-67
2022/11/02 07:59:38;;;;;;;4.55;4.25;;;;;;;11.50;93.25;101747.78;6030924;23;20041;-67
2022/11/02 08:02:12;;;;;;;5.03;4.70;;;;;;;11.23;93.11;101684.03;6003277;23;20514;-67
2022/11/02 08:04:38;;;;;;;4.63;4.33;;;;;;;11.36;92.58;101722.88;6033261;23;20472;-68
2022/11/02 08:07:10;;;;;;;5.18;4.20;;;;;;;11.62;92.65;101764.84;6035939;23;20534;-67
2022/11/02 08:09:36;;;;;;;6.65;4.70;;;;;;;10.82;92.61;101644.44;6008907;23;20534;-68
2022/11/02 08:12:03;;;;;;;4.75;4.45;;;;;;;11.57;91.90;101767.69;6035488;23;20104;-68
2022/11/02 08:14:29;;;;;;;4.70;4.40;;;;;;;11.61;92.11;101771.91;6020585;23;20038;-68
2022/11/02 08:16:55;;;;;;;5.20;4.55;;;;;;;11.07;92.62;101683.78;6021292;23;20042;-68
2022/11/02 08:19:22;;;;;;;4.43;4.07;;;;;;;11.71;92.29;101780.28;6032897;23;20103;-68
2022/11/02 08:21:48;;;;;;;4.38;4.18;;;;;;;11.68;92.27;101775.13;6018633;23;20468;-68
2022/11/02 08:24:15;;;;;;;4.68;4.47;;;;;;;11.73;92.35;101784.56;6009330;23;20030;-68
2022/11/02 08:26:41;;;;;;;5.15;4.65;;;;;;;11.75;91.82;101779.25;6039108;23;20023;-67
2022/11/02 08:29:11;;;;;;;4.30;4.10;;;;;;;11.73;92.27;101770.56;6035616;23;20596;-67
2022/11/02 08:31:37;;;;;;;4.53;4.10;;;;;;;11.57;92.43;101747.50;6025852;23;20027;-68
2022/11/02 08:34:04;;;;;;;5.22;4.88;;;;;;;11.80;92.27;101790.41;6026215;23;20034;-68
2022/11/02 08:36:33;;;;;;;4.60;4.30;;;;;;;11.87;92.25;101797.16;6031170;23;20023;-68
2022/11/02 08:39:00;;;;;;;5.82;4.55;;;;;;;11.49;91.99;101739.06;6031626;23;20006;-68
2022/11/02 08:41:26;;;;;;;6.07;4.05;;;;;;;12.01;90.61;101808.91;6028295;23;20026;-68
2022/11/02 08:43:53;;;;;;;4.78;4.47;;;;;;;11.97;89.55;101800.31;6033470;23;20080;-68
2022/11/02 08:46:19;;;;;;;5.10;4.38;;;;;;;12.08;89.24;101819.13;6035896;23;20085;-67
2022/11/02 08:48:45;;;;;;;10.48;4.90;;;;;;;11.67;89.55;101758.50;6027982;23;20035;-67
2022/11/02 08:51:12;;;;;;;4.47;4.18;;;;;;;12.18;89.02;101838.03;6033718;23;20026;-68
2022/11/02 08:53:38;;;;;;;5.00;4.40;;;;;;;11.55;89.30;101732.69;6035678;23;20023;-68
2022/11/02 08:56:05;;;;;;;9.27;4.57;;;;;;;12.11;89.54;101826.91;6058920;23;20034;-67
2022/11/02 08:58:31;;;;;;;5.82;4.53;;;;;;;12.18;88.43;101835.41;6064806;23;20080;-70
2022/11/02 09:00:58;;;;;;;13.85;4.72;;;;;;;11.15;88.39;101692.22;6055217;23;20043;-70
2022/11/02 09:03:24;;;;;;;5.25;4.28;;;;;;;12.11;87.92;101784.81;6060956;23;20756;-71
2022/11/02 09:05:58;;;;;;;6.40;4.25;;;;;;;12.35;86.48;101829.47;6060341;23;20058;-71
2022/11/02 09:08:26;;;;;;;8.63;4.97;;;;;;;12.47;86.51;101846.50;6068399;23;20033;-71
2022/11/02 09:10:57;;;;;;;4.70;4.22;;;;;;;12.57;87.34;101847.84;6062415;23;20747;-71
2022/11/02 09:13:24;;;;;;;6.68;4.25;;;;;;;12.41;87.21;101823.06;6057705;23;20087;-71
2022/11/02 09:15:52;;;;;;;5.10;4.63;;;;;;;12.64;86.64;101854.56;6056875;23;20061;-73
2022/11/02 09:18:20;;;;;;;5.53;5.03;;;;;;;12.48;85.97;101838.53;6058345;23;20497;-71
2022/11/02 09:20:47;;;;;;;4.68;4.30;;;;;;;12.37;86.22;101807.41;6058575;23;20034;-70
2022/11/02 09:23:18;;;;;;;7.18;4.95;;;;;;;12.31;85.74;101798.94;6059860;23;20037;-71
2022/11/02 09:25:44;;;;;;;4.75;4.43;;;;;;;12.80;84.13;101861.81;6067359;23;21446;-68
2022/11/02 09:28:13;;;;;;;5.45;4.70;;;;;;;12.82;83.90;101857.34;6032465;23;20062;-67
2022/11/02 09:30:40;;;;;;;4.72;4.43;;;;;;;11.95;82.95;101705.66;6058683;23;20577;-68
2022/11/02 09:33:07;;;;;;;10.40;4.70;;;;;;;12.98;82.27;101882.09;6032841;23;20620;-66
2022/11/02 09:35:45;;;;;;;7.00;4.13;;;;;;;12.89;82.24;101822.75;6071583;23;20041;-70
2022/11/02 09:38:13;;;;;;;4.78;4.53;;;;;;;13.25;80.57;101864.22;6057969;23;20060;-74
2022/11/02 09:40:44;;;;;;;4.50;4.30;;;;;;;13.18;79.81;101855.72;6056307;23;20601;-71
2022/11/02 09:43:31;;;;;;;4.53;4.10;;;;;;;13.03;78.11;101821.28;6059344;23;20018;-73
2022/11/02 09:46:05;;;;;;;4.95;4.65;;;;;;;12.89;78.63;101806.06;6063736;23;20023;-73
2022/11/02 09:48:46;;;;;;;4.60;4.40;;;;;;;13.39;78.96;101857.50;6056424;23;20026;-72
2022/11/02 09:51:24;;;;;;;12.13;4.50;;;;;;;13.49;77.12;101849.09;6060869;23;20072;-72
2022/11/02 09:54:06;;;;;;;5.13;4.68;;;;;;;13.50;76.42;101852.59;6035168;23;20106;-72
2022/11/02 09:56:36;;;;;;;4.38;4.18;;;;;;;13.43;75.65;101827.41;6052885;23;20038;-72
2022/11/02 09:59:13;;;;;;;9.65;4.53;;;;;;;13.68;76.16;101850.88;6049128;23;20030;-71
2022/11/02 10:02:08;;;;;;;5.20;4.80;;;;;;;13.81;75.73;101859.06;6047858;23;20026;-71
2022/11/02 10:05:12;;;;;;;14.32;5.03;;;;;;;13.96;75.08;101859.19;6056357;23;20038;-71
2022/11/02 10:07:47;;;;;;;5.47;5.00;;;;;;;14.02;74.29;101859.84;6056725;23;20034;-72
2022/11/02 10:10:22;;;;;;;5.00;4.57;;;;;;;14.11;74.91;101864.66;6061513;23;20164;-72
2022/11/02 10:13:11;;;;;;;8.23;4.35;;;;;;;13.99;73.08;101801.91;6066242;23;20344;-71
2022/11/02 10:15:44;;;;;;;4.70;4.50;;;;;;;14.01;72.29;101785.09;6059798;23;20099;-71
2022/11/02 10:18:26;;;;;;;7.18;5.28;;;;;;;14.39;71.74;101828.97;6016541;23;20638;-71
2022/11/02 10:21:10;;;;;;;7.78;4.80;;;;;;;14.33;71.09;101832.78;6053241;23;20363;-70
2022/11/02 10:23:46;;;;;;;4.85;4.55;;;;;;;14.09;70.99;101787.34;6033322;23;20034;-71
2022/11/02 10:26:36;;;;;;;4.97;4.72;;;;;;;14.08;71.71;101806.75;6056534;23;20038;-72
2022/11/02 10:29:16;;;;;;;7.57;5.10;;;;;;;14.46;69.87;101819.84;6037493;23;20022;-71
2022/11/02 10:31:43;;;;;;;4.78;4.50;;;;;;;14.32;69.20;101765.06;6033779;23;20088;-72
2022/11/02 10:34:24;;;;;;;5.00;4.70;;;;;;;14.65;67.68;101796.00;6046234;23;20034;-72
2022/11/02 10:36:54;;;;;;;4.90;4.57;;;;;;;14.68;67.05;101787.91;6063859;23;20019;-72
2022/11/02 10:39:39;;;;;;;4.90;4.60;;;;;;;14.65;67.07;101772.22;6061476;23;20022;-72
2022/11/02 10:42:12;;;;;;;4.95;4.50;;;;;;;14.99;66.86;101783.66;6059669;23;20089;-71
2022/11/02 10:45:03;;;;;;;4.78;4.50;;;;;;;15.11;64.52;101761.84;6062567;23;20489;-71
2022/11/02 10:47:40;;;;;;;5.20;4.70;;;;;;;15.14;63.91;101761.69;6034210;23;20057;-71
2022/11/02 10:50:14;;;;;;;4.90;4.70;;;;;;;14.73;62.52;101675.78;6074127;23;20018;-71
2022/11/02 10:52:43;;;;;;;4.53;4.32;;;;;;;15.15;64.10;101751.03;6061751;23;20023;-70
2022/11/02 10:55:22;;;;;;;5.00;4.60;;;;;;;15.26;63.03;101736.38;6065974;23;20026;-76
2022/11/02 10:57:49;;;;;;;4.75;4.50;;;;;;;14.93;62.07;101672.03;6070673;23;20028;-71
2022/11/02 11:00:34;;;;;;;5.18;4.72;;;;;;;15.20;60.90;101678.53;6060992;23;20033;-71
2022/11/02 11:03:12;;;;;;;5.10;4.70;;;;;;;15.47;61.37;101716.63;6030854;23;20030;-71
2022/11/02 11:05:54;;;;;;;4.60;4.35;;;;;;;15.45;59.62;101678.81;6059832;23;20034;-71
2022/11/02 11:08:36;;;;;;;5.10;4.70;;;;;;;15.39;60.18;101658.00;6040810;23;20023;-71
2022/11/02 11:11:10;;;;;;;4.90;4.60;;;;;;;15.73;59.21;101685.22;6034507;23;20561;-72
2022/11/02 11:13:37;;;;;;;5.65;5.32;;;;;;;15.43;58.83;101629.59;6041137;23;20023;-72
2022/11/02 11:16:35;;;;;;;4.90;4.60;;;;;;;15.45;58.23;101633.00;6048183;23;20026;-71
2022/11/02 11:19:04;;;;;;;5.28;4.88;;;;;;;14.99;57.27;101543.09;6073033;23;20026;-72
2022/11/02 11:21:52;;;;;;;4.80;4.60;;;;;;;15.19;58.34;101608.06;6056013;23;20026;-72
2022/11/02 11:24:27;;;;;;;5.43;4.82;;;;;;;15.52;58.88;101661.66;6048667;23;20464;-73
2022/11/02 11:27:11;;;;;;;4.95;4.68;;;;;;;15.49;59.19;101704.16;6050697;23;20042;-72
2022/11/02 11:29:44;;;;;;;6.80;4.35;;;;;;;15.72;60.82;101723.19;6036647;23;20037;-70
2022/11/02 11:32:28;;;;;;;5.70;4.75;;;;;;;15.87;60.63;101719.66;6055809;23;20028;-70
2022/11/02 11:34:58;;;;;;;4.78;4.57;;;;;;;16.22;60.45;101737.09;6035641;23;20014;-71
2022/11/02 11:37:25;;;;;;;5.25;4.65;;;;;;;16.15;59.74;101703.00;6050517;23;20026;-72
2022/11/02 11:39:57;;;;;;;6.03;4.72;;;;;;;16.45;59.40;101712.69;6029106;23;20019;-71
2022/11/02 11:42:28;;;;;;;7.35;5.20;;;;;;;16.14;59.59;101639.56;6007374;23;20027;-71
2022/11/02 11:45:05;;;;;;;5.50;4.65;;;;;;;15.94;58.81;101611.63;6044733;23;20394;-72
2022/11/02 11:47:37;;;;;;;5.53;5.05;;;;;;;16.48;59.49;101693.13;6059930;23;20072;-71
2022/11/02 11:50:12;;;;;;;5.70;5.22;;;;;;;16.87;59.05;101710.19;6046774;23;20632;-72
2022/11/02 11:53:11;;;;;;;8.65;5.50;;;;;;;16.93;56.98;101631.09;6043960;23;20034;-71